sensor_id;sensor_type;location;lat;lon;timestamp;pressure;altitude;pressure_sealevel;temperature;humidity
35655;BME280;21773;50.010;19.972;2023-03-15T00:00:07;97359.13;;;14.63;49.68
35655;BME280;21773;50.010;19.972;2023-03-15T00:03:13;97362.78;;;14.48;50.12
35655;BME280;21773;50.010;19.972;2023-03-15T00:06:16;97363.09;;;14.42;50.05
35655;BME280;21773;50.010;19.972;2023-03-15T00:09:20;97379.94;;;14.39;49.90
35655;BME280;21773;50.010;19.972;2023-03-15T00:12:25;97388.88;;;14.34;49.71
35655;BME280;21773;50.010;19.972;2023-03-15T00:15:28;97409.44;;;14.45;49.08
35655;BME280;21773;50.010;19.972;2023-03-15T00:18:33;97416.28;;;14.32;49.28
35655;BME280;21773;50.010;19.972;2023-03-15T00:21:37;97447.44;;;14.35;49.22
35655;BME280;21773;50.010;19.972;2023-03-15T00:24:41;97460.81;;;14.21;48.31
35655;BME280;21773;50.010;19.972;2023-03-15T00:27:45;97457.44;;;13.91;48.95
35655;BME280;21773;50.010;19.972;2023-03-15T00:30:48;97473.50;;;13.72;49.40
35655;BME280;21773;50.010;19.972;2023-03-15T00:33:54;97501.41;;;13.62;49.40
35655;BME280;21773;50.010;19.972;2023-03-15T00:36:57;97513.06;;;13.53;49.56
35655;BME280;21773;50.010;19.972;2023-03-15T00:40:00;97533.13;;;13.16;50.53
35655;BME280;21773;50.010;19.972;2023-03-15T00:43:08;97535.81;;;13.01;50.58
35655;BME280;21773;50.010;19.972;2023-03-15T00:46:11;97545.50;;;12.77;51.07
35655;BME280;21773;50.010;19.972;2023-03-15T00:49:17;97556.81;;;12.53;51.50
35655;BME280;21773;50.010;19.972;2023-03-15T00:52:20;97566.41;;;12.14;52.69
35655;BME280;21773;50.010;19.972;2023-03-15T00:55:24;97570.13;;;12.03;52.77
35655;BME280;21773;50.010;19.972;2023-03-15T00:58:28;97575.78;;;11.96;52.90
35655;BME280;21773;50.010;19.972;2023-03-15T01:01:31;97613.50;;;11.81;52.54
35655;BME280;21773;50.010;19.972;2023-03-15T01:04:36;97611.13;;;11.53;52.60
35655;BME280;21773;50.010;19.972;2023-03-15T01:07:39;97623.75;;;11.47;52.76
35655;BME280;21773;50.010;19.972;2023-03-15T01:10:44;97633.50;;;11.48;52.64
35655;BME280;21773;50.010;19.972;2023-03-15T01:13:47;97646.31;;;11.36;52.71
35655;BME280;21773;50.010;19.972;2023-03-15T01:16:50;97652.69;;;11.25;52.76
35655;BME280;21773;50.010;19.972;2023-03-15T01:19:55;97657.50;;;11.18;52.80
35655;BME280;21773;50.010;19.972;2023-03-15T01:22:58;97668.09;;;10.98;52.81
35655;BME280;21773;50.010;19.972;2023-03-15T01:26:03;97668.31;;;10.96;52.92
35655;BME280;21773;50.010;19.972;2023-03-15T01:29:07;97673.19;;;10.72;53.07
35655;BME280;21773;50.010;19.972;2023-03-15T01:32:10;97684.78;;;10.73;53.26
35655;BME280;21773;50.010;19.972;2023-03-15T01:35:16;97693.63;;;10.68;53.25
35655;BME280;21773;50.010;19.972;2023-03-15T01:38:19;97707.66;;;10.49;53.47
35655;BME280;21773;50.010;19.972;2023-03-15T01:41:23;97723.59;;;10.50;52.93
35655;BME280;21773;50.010;19.972;2023-03-15T01:44:52;97735.91;;;10.46;52.50
35655;BME280;21773;50.010;19.972;2023-03-15T01:47:56;97747.19;;;10.43;52.28
35655;BME280;21773;50.010;19.972;2023-03-15T01:51:06;97754.53;;;10.48;51.66
35655;BME280;21773;50.010;19.972;2023-03-15T01:54:14;97762.69;;;10.53;51.38
35655;BME280;21773;50.010;19.972;2023-03-15T01:57:24;97754.03;;;10.51;50.41
35655;BME280;21773;50.010;19.972;2023-03-15T02:00:29;97753.56;;;10.37;50.07
35655;BME280;21773;50.010;19.972;2023-03-15T02:03:42;97759.69;;;10.32;50.10
35655;BME280;21773;50.010;19.972;2023-03-15T02:06:51;97756.63;;;10.24;50.03
35655;BME280;21773;50.010;19.972;2023-03-15T02:10:08;97780.44;;;10.15;50.23
35655;BME280;21773;50.010;19.972;2023-03-15T02:13:17;97797.63;;;10.14;50.16
35655;BME280;21773;50.010;19.972;2023-03-15T02:16:24;97807.66;;;10.02;49.51
35655;BME280;21773;50.010;19.972;2023-03-15T02:19:42;97809.94;;;9.93;48.78
35655;BME280;21773;50.010;19.972;2023-03-15T02:22:53;97817.19;;;9.76;47.84
35655;BME280;21773;50.010;19.972;2023-03-15T02:26:04;97814.31;;;9.66;47.95
35655;BME280;21773;50.010;19.972;2023-03-15T02:29:11;97813.47;;;9.77;47.82
35655;BME280;21773;50.010;19.972;2023-03-15T02:32:14;97820.81;;;9.82;47.50
35655;BME280;21773;50.010;19.972;2023-03-15T02:35:23;97821.22;;;9.90;47.46
35655;BME280;21773;50.010;19.972;2023-03-15T02:38:27;97819.41;;;9.79;48.75
35655;BME280;21773;50.010;19.972;2023-03-15T02:41:33;97819.53;;;9.73;49.25
35655;BME280;21773;50.010;19.972;2023-03-15T02:44:42;97816.94;;;9.61;49.44
35655;BME280;21773;50.010;19.972;2023-03-15T02:47:48;97812.53;;;9.43;49.10
35655;BME280;21773;50.010;19.972;2023-03-15T02:50:51;97845.94;;;9.31;49.71
35655;BME280;21773;50.010;19.972;2023-03-15T02:53:55;97841.66;;;9.18;50.08
35655;BME280;21773;50.010;19.972;2023-03-15T02:57:00;97859.06;;;9.16;50.52
35655;BME280;21773;50.010;19.972;2023-03-15T03:00:07;97869.59;;;9.17;50.73
35655;BME280;21773;50.010;19.972;2023-03-15T03:03:17;97870.63;;;9.16;50.46
35655;BME280;21773;50.010;19.972;2023-03-15T03:06:20;97879.03;;;9.20;50.68
35655;BME280;21773;50.010;19.972;2023-03-15T03:09:24;97889.94;;;9.13;50.85
35655;BME280;21773;50.010;19.972;2023-03-15T03:12:27;97900.72;;;9.01;51.18
35655;BME280;21773;50.010;19.972;2023-03-15T03:15:32;97917.66;;;9.13;51.17
35655;BME280;21773;50.010;19.972;2023-03-15T03:18:36;97916.44;;;9.33;50.96
35655;BME280;21773;50.010;19.972;2023-03-15T03:21:39;97909.53;;;9.37;50.56
35655;BME280;21773;50.010;19.972;2023-03-15T03:24:45;97901.69;;;9.35;50.99
35655;BME280;21773;50.010;19.972;2023-03-15T03:27:50;97901.94;;;9.34;50.81
35655;BME280;21773;50.010;19.972;2023-03-15T03:31:01;97914.00;;;9.31;50.86
35655;BME280;21773;50.010;19.972;2023-03-15T03:34:04;97912.50;;;9.12;50.86
35655;BME280;21773;50.010;19.972;2023-03-15T03:37:10;97915.19;;;9.12;51.00
35655;BME280;21773;50.010;19.972;2023-03-15T03:40:32;97912.03;;;9.15;50.59
35655;BME280;21773;50.010;19.972;2023-03-15T03:43:36;97921.84;;;9.09;50.69
35655;BME280;21773;50.010;19.972;2023-03-15T03:46:42;97918.22;;;9.16;50.30
35655;BME280;21773;50.010;19.972;2023-03-15T03:49:47;97921.84;;;9.09;50.33
35655;BME280;21773;50.010;19.972;2023-03-15T03:52:51;97920.44;;;9.19;49.79
35655;BME280;21773;50.010;19.972;2023-03-15T03:56:03;97938.31;;;9.36;49.17
35655;BME280;21773;50.010;19.972;2023-03-15T03:59:09;97926.72;;;9.36;48.76
35655;BME280;21773;50.010;19.972;2023-03-15T04:02:25;97935.94;;;9.40;48.65
35655;BME280;21773;50.010;19.972;2023-03-15T04:05:33;97937.47;;;9.36;48.27
35655;BME280;21773;50.010;19.972;2023-03-15T04:08:37;97956.19;;;9.31;48.36
35655;BME280;21773;50.010;19.972;2023-03-15T04:11:45;97953.50;;;9.42;48.10
35655;BME280;21773;50.010;19.972;2023-03-15T04:14:50;97958.16;;;9.47;48.07
35655;BME280;21773;50.010;19.972;2023-03-15T04:17:57;97967.53;;;9.44;48.26
35655;BME280;21773;50.010;19.972;2023-03-15T04:21:06;97959.56;;;9.49;48.16
35655;BME280;21773;50.010;19.972;2023-03-15T04:24:15;97961.91;;;9.57;47.90
35655;BME280;21773;50.010;19.972;2023-03-15T04:27:31;97969.16;;;9.57;47.97
35655;BME280;21773;50.010;19.972;2023-03-15T04:30:43;97956.50;;;9.57;47.72
35655;BME280;21773;50.010;19.972;2023-03-15T04:34:14;97976.25;;;9.63;47.78
35655;BME280;21773;50.010;19.972;2023-03-15T04:37:38;97975.09;;;9.59;47.60
35655;BME280;21773;50.010;19.972;2023-03-15T04:41:06;97976.13;;;9.58;47.20
35655;BME280;21773;50.010;19.972;2023-03-15T04:44:30;97980.47;;;9.59;47.02
35655;BME280;21773;50.010;19.972;2023-03-15T04:47:52;97996.97;;;9.63;46.86
35655;BME280;21773;50.010;19.972;2023-03-15T04:51:06;97985.91;;;9.47;46.71
35655;BME280;21773;50.010;19.972;2023-03-15T04:54:09;98006.00;;;9.45;46.56
35655;BME280;21773;50.010;19.972;2023-03-15T04:57:39;98001.44;;;9.34;46.05
35655;BME280;21773;50.010;19.972;2023-03-15T05:01:01;97997.47;;;9.25;46.42
35655;BME280;21773;50.010;19.972;2023-03-15T05:04:08;98001.69;;;9.32;45.85
35655;BME280;21773;50.010;19.972;2023-03-15T05:07:38;98010.22;;;9.41;45.17
35655;BME280;21773;50.010;19.972;2023-03-15T05:11:11;98012.81;;;9.47;45.12
35655;BME280;21773;50.010;19.972;2023-03-15T05:14:35;98031.03;;;9.45;45.38
35655;BME280;21773;50.010;19.972;2023-03-15T05:18:03;98007.19;;;9.37;44.96
35655;BME280;21773;50.010;19.972;2023-03-15T05:21:13;98034.31;;;9.47;45.63
35655;BME280;21773;50.010;19.972;2023-03-15T05:24:35;98037.25;;;9.46;45.40
35655;BME280;21773;50.010;19.972;2023-03-15T05:27:55;98044.81;;;9.49;45.24
35655;BME280;21773;50.010;19.972;2023-03-15T05:31:15;98057.22;;;9.62;44.88
35655;BME280;21773;50.010;19.972;2023-03-15T05:34:38;98057.34;;;9.67;44.36
35655;BME280;21773;50.010;19.972;2023-03-15T05:38:13;98063.44;;;9.62;43.73
35655;BME280;21773;50.010;19.972;2023-03-15T05:41:36;98071.97;;;9.59;43.43
35655;BME280;21773;50.010;19.972;2023-03-15T05:45:01;98081.44;;;9.73;43.45
35655;BME280;21773;50.010;19.972;2023-03-15T05:48:23;98087.50;;;9.69;43.28
35655;BME280;21773;50.010;19.972;2023-03-15T05:51:43;98086.59;;;9.75;43.23
35655;BME280;21773;50.010;19.972;2023-03-15T05:54:53;98095.13;;;9.72;42.70
35655;BME280;21773;50.010;19.972;2023-03-15T05:58:20;98097.47;;;9.80;42.60
35655;BME280;21773;50.010;19.972;2023-03-15T06:01:47;98103.19;;;9.95;42.55
35655;BME280;21773;50.010;19.972;2023-03-15T06:04:59;98119.34;;;9.95;42.31
35655;BME280;21773;50.010;19.972;2023-03-15T06:08:04;98114.28;;;9.98;42.33
35655;BME280;21773;50.010;19.972;2023-03-15T06:11:11;98118.97;;;10.03;42.28
35655;BME280;21773;50.010;19.972;2023-03-15T06:14:16;98131.59;;;10.14;42.08
35655;BME280;21773;50.010;19.972;2023-03-15T06:17:29;98131.97;;;10.18;41.52
35655;BME280;21773;50.010;19.972;2023-03-15T06:20:33;98141.91;;;10.17;41.65
35655;BME280;21773;50.010;19.972;2023-03-15T06:23:43;98148.22;;;10.23;41.28
35655;BME280;21773;50.010;19.972;2023-03-15T06:26:47;98158.41;;;10.32;41.54
35655;BME280;21773;50.010;19.972;2023-03-15T06:29:52;98163.94;;;10.26;40.95
35655;BME280;21773;50.010;19.972;2023-03-15T06:32:58;98148.94;;;10.07;41.36
35655;BME280;21773;50.010;19.972;2023-03-15T06:36:04;98171.44;;;10.24;41.16
35655;BME280;21773;50.010;19.972;2023-03-15T06:39:09;98162.03;;;10.15;41.18
35655;BME280;21773;50.010;19.972;2023-03-15T06:42:13;98177.53;;;10.31;41.35
35655;BME280;21773;50.010;19.972;2023-03-15T06:45:19;98183.03;;;10.24;42.19
35655;BME280;21773;50.010;19.972;2023-03-15T06:48:23;98183.69;;;10.31;42.74
35655;BME280;21773;50.010;19.972;2023-03-15T06:51:27;98183.03;;;10.24;43.18
35655;BME280;21773;50.010;19.972;2023-03-15T06:54:30;98174.00;;;10.19;43.45
35655;BME280;21773;50.010;19.972;2023-03-15T06:57:34;98192.50;;;10.27;43.62
35655;BME280;21773;50.010;19.972;2023-03-15T07:00:38;98201.06;;;10.24;42.83
35655;BME280;21773;50.010;19.972;2023-03-15T07:03:42;98196.72;;;10.34;42.83
35655;BME280;21773;50.010;19.972;2023-03-15T07:06:46;98210.63;;;10.43;43.15
35655;BME280;21773;50.010;19.972;2023-03-15T07:09:49;98207.44;;;10.46;41.85
35655;BME280;21773;50.010;19.972;2023-03-15T07:12:54;98203.75;;;10.35;41.25
35655;BME280;21773;50.010;19.972;2023-03-15T07:15:59;98208.06;;;10.36;41.23
35655;BME280;21773;50.010;19.972;2023-03-15T07:19:02;98203.16;;;10.33;41.19
35655;BME280;21773;50.010;19.972;2023-03-15T07:22:06;98201.06;;;10.35;41.50
35655;BME280;21773;50.010;19.972;2023-03-15T07:25:09;98214.63;;;10.40;41.73
35655;BME280;21773;50.010;19.972;2023-03-15T07:28:13;98217.56;;;10.39;42.30
35655;BME280;21773;50.010;19.972;2023-03-15T07:31:17;98216.63;;;10.33;42.44
35655;BME280;21773;50.010;19.972;2023-03-15T07:34:22;98214.88;;;10.39;41.96
35655;BME280;21773;50.010;19.972;2023-03-15T07:37:26;98229.72;;;10.53;41.81
35655;BME280;21773;50.010;19.972;2023-03-15T07:40:29;98236.59;;;10.61;41.06
35655;BME280;21773;50.010;19.972;2023-03-15T07:43:33;98232.63;;;10.63;39.83
35655;BME280;21773;50.010;19.972;2023-03-15T07:46:50;98234.34;;;10.81;39.92
35655;BME280;21773;50.010;19.972;2023-03-15T07:49:54;98235.75;;;10.83;39.86
35655;BME280;21773;50.010;19.972;2023-03-15T07:52:57;98238.50;;;11.00;39.74
35655;BME280;21773;50.010;19.972;2023-03-15T07:56:01;98241.97;;;11.12;39.17
35655;BME280;21773;50.010;19.972;2023-03-15T07:59:04;98251.41;;;11.26;39.17
35655;BME280;21773;50.010;19.972;2023-03-15T08:02:11;98266.47;;;11.39;38.16
35655;BME280;21773;50.010;19.972;2023-03-15T08:05:15;98266.06;;;11.30;37.73
35655;BME280;21773;50.010;19.972;2023-03-15T08:08:20;98270.41;;;11.32;37.78
35655;BME280;21773;50.010;19.972;2023-03-15T08:11:23;98271.00;;;11.34;37.93
35655;BME280;21773;50.010;19.972;2023-03-15T08:14:26;98271.69;;;11.29;38.18
35655;BME280;21773;50.010;19.972;2023-03-15T08:17:59;98279.00;;;11.28;38.05
35655;BME280;21773;50.010;19.972;2023-03-15T08:21:04;98284.28;;;11.23;38.52
35655;BME280;21773;50.010;19.972;2023-03-15T08:24:07;98281.09;;;11.26;38.29
35655;BME280;21773;50.010;19.972;2023-03-15T08:27:10;98282.56;;;11.34;38.06
35655;BME280;21773;50.010;19.972;2023-03-15T08:30:15;98283.69;;;11.21;37.89
35655;BME280;21773;50.010;19.972;2023-03-15T08:33:20;98275.94;;;11.25;37.74
35655;BME280;21773;50.010;19.972;2023-03-15T08:36:24;98280.88;;;11.28;36.89
35655;BME280;21773;50.010;19.972;2023-03-15T08:39:27;98282.75;;;11.27;37.40
35655;BME280;21773;50.010;19.972;2023-03-15T08:42:30;98285.66;;;11.26;37.85
35655;BME280;21773;50.010;19.972;2023-03-15T08:45:34;98293.81;;;11.43;37.58
35655;BME280;21773;50.010;19.972;2023-03-15T08:49:01;98288.13;;;11.56;37.46
35655;BME280;21773;50.010;19.972;2023-03-15T08:52:04;98291.00;;;11.66;36.78
35655;BME280;21773;50.010;19.972;2023-03-15T08:55:08;98289.34;;;11.77;37.02
35655;BME280;21773;50.010;19.972;2023-03-15T08:58:15;98294.16;;;11.75;36.74
35655;BME280;21773;50.010;19.972;2023-03-15T09:01:18;98297.53;;;11.82;36.31
35655;BME280;21773;50.010;19.972;2023-03-15T09:04:23;98302.28;;;12.08;36.17
35655;BME280;21773;50.010;19.972;2023-03-15T09:07:27;98308.91;;;12.34;36.32
35655;BME280;21773;50.010;19.972;2023-03-15T09:10:30;98305.38;;;12.50;35.69
35655;BME280;21773;50.010;19.972;2023-03-15T09:13:35;98317.47;;;12.64;35.76
35655;BME280;21773;50.010;19.972;2023-03-15T09:16:38;98324.38;;;12.55;34.73
35655;BME280;21773;50.010;19.972;2023-03-15T09:19:43;98326.91;;;12.62;34.90
35655;BME280;21773;50.010;19.972;2023-03-15T09:22:50;98334.56;;;12.31;35.93
35655;BME280;21773;50.010;19.972;2023-03-15T09:25:53;98331.63;;;12.16;35.65
35655;BME280;21773;50.010;19.972;2023-03-15T09:28:56;98332.56;;;11.93;35.77
35655;BME280;21773;50.010;19.972;2023-03-15T09:31:59;98335.16;;;11.88;35.38
35655;BME280;21773;50.010;19.972;2023-03-15T09:35:08;98335.19;;;12.05;35.56
35655;BME280;21773;50.010;19.972;2023-03-15T09:38:12;98343.44;;;11.98;35.32
35655;BME280;21773;50.010;19.972;2023-03-15T09:41:19;98339.19;;;12.02;35.20
35655;BME280;21773;50.010;19.972;2023-03-15T09:44:43;98336.25;;;12.04;35.08
35655;BME280;21773;50.010;19.972;2023-03-15T09:47:56;98336.56;;;11.91;35.06
35655;BME280;21773;50.010;19.972;2023-03-15T09:51:06;98339.47;;;12.01;35.54
35655;BME280;21773;50.010;19.972;2023-03-15T09:54:12;98336.00;;;11.89;35.02
35655;BME280;21773;50.010;19.972;2023-03-15T09:57:23;98350.81;;;11.86;34.88
35655;BME280;21773;50.010;19.972;2023-03-15T10:00:37;98333.88;;;11.62;34.45
35655;BME280;21773;50.010;19.972;2023-03-15T10:03:47;98350.41;;;11.66;33.66
35655;BME280;21773;50.010;19.972;2023-03-15T10:06:55;98356.69;;;11.83;33.80
35655;BME280;21773;50.010;19.972;2023-03-15T10:09:59;98361.91;;;12.01;33.97
35655;BME280;21773;50.010;19.972;2023-03-15T10:13:12;98361.72;;;12.08;33.79
35655;BME280;21773;50.010;19.972;2023-03-15T10:16:30;98365.09;;;12.15;33.95
35655;BME280;21773;50.010;19.972;2023-03-15T10:19:39;98368.44;;;12.05;34.12
35655;BME280;21773;50.010;19.972;2023-03-15T10:22:55;98365.41;;;12.02;34.47
35655;BME280;21773;50.010;19.972;2023-03-15T10:26:01;98371.47;;;12.09;34.25
35655;BME280;21773;50.010;19.972;2023-03-15T10:29:13;98376.47;;;12.17;34.45
35655;BME280;21773;50.010;19.972;2023-03-15T10:32:20;98382.41;;;12.31;33.38
35655;BME280;21773;50.010;19.972;2023-03-15T10:35:25;98382.47;;;12.36;33.71
35655;BME280;21773;50.010;19.972;2023-03-15T10:38:29;98383.44;;;12.30;33.58
35655;BME280;21773;50.010;19.972;2023-03-15T10:41:37;98377.88;;;12.20;33.11
35655;BME280;21773;50.010;19.972;2023-03-15T10:44:41;98390.91;;;12.39;32.30
35655;BME280;21773;50.010;19.972;2023-03-15T10:47:44;98385.66;;;12.33;32.32
35655;BME280;21773;50.010;19.972;2023-03-15T10:51:04;98382.22;;;12.54;32.26
35655;BME280;21773;50.010;19.972;2023-03-15T10:54:14;98383.22;;;12.65;31.66
35655;BME280;21773;50.010;19.972;2023-03-15T10:57:19;98383.38;;;12.75;31.95
35655;BME280;21773;50.010;19.972;2023-03-15T11:00:29;98392.53;;;12.74;31.99
35655;BME280;21773;50.010;19.972;2023-03-15T11:03:34;98388.63;;;12.65;31.91
35655;BME280;21773;50.010;19.972;2023-03-15T11:06:41;98388.84;;;12.63;30.73
35655;BME280;21773;50.010;19.972;2023-03-15T11:09:51;98391.81;;;12.45;30.83
35655;BME280;21773;50.010;19.972;2023-03-15T11:13:09;98396.72;;;12.48;31.17
35655;BME280;21773;50.010;19.972;2023-03-15T11:16:19;98383.44;;;12.46;31.27
35655;BME280;21773;50.010;19.972;2023-03-15T11:19:26;98385.09;;;12.47;31.56
35655;BME280;21773;50.010;19.972;2023-03-15T11:22:31;98388.94;;;12.68;32.08
35655;BME280;21773;50.010;19.972;2023-03-15T11:25:36;98383.38;;;12.75;31.05
35655;BME280;21773;50.010;19.972;2023-03-15T11:28:46;98370.84;;;12.90;31.02
35655;BME280;21773;50.010;19.972;2023-03-15T11:31:51;98395.88;;;13.14;31.32
35655;BME280;21773;50.010;19.972;2023-03-15T11:34:59;98371.50;;;13.14;30.52
35655;BME280;21773;50.010;19.972;2023-03-15T11:38:10;98390.25;;;13.21;30.63
35655;BME280;21773;50.010;19.972;2023-03-15T11:41:26;98394.13;;;13.08;29.89
35655;BME280;21773;50.010;19.972;2023-03-15T11:44:37;98401.13;;;12.87;30.59
35655;BME280;21773;50.010;19.972;2023-03-15T11:47:46;98404.66;;;12.88;30.79
35655;BME280;21773;50.010;19.972;2023-03-15T11:50:52;98403.59;;;12.72;30.57
35655;BME280;21773;50.010;19.972;2023-03-15T11:54:04;98399.25;;;12.71;30.74
35655;BME280;21773;50.010;19.972;2023-03-15T11:57:41;98405.00;;;12.75;30.86
35655;BME280;21773;50.010;19.972;2023-03-15T12:00:53;98392.03;;;12.93;30.11
35655;BME280;21773;50.010;19.972;2023-03-15T12:04:36;98403.63;;;13.11;30.45
35655;BME280;21773;50.010;19.972;2023-03-15T12:08:00;98408.22;;;13.27;30.20
35655;BME280;21773;50.010;19.972;2023-03-15T12:11:41;98409.66;;;13.13;29.89
35655;BME280;21773;50.010;19.972;2023-03-15T12:14:46;98405.88;;;13.35;30.34
35655;BME280;21773;50.010;19.972;2023-03-15T12:17:52;98400.41;;;13.52;29.60
35655;BME280;21773;50.010;19.972;2023-03-15T12:21:12;98404.50;;;13.76;30.09
35655;BME280;21773;50.010;19.972;2023-03-15T12:24:21;98396.19;;;13.88;29.16
35655;BME280;21773;50.010;19.972;2023-03-15T12:27:27;98399.59;;;14.00;29.10
35655;BME280;21773;50.010;19.972;2023-03-15T12:30:37;98391.97;;;14.24;28.71
35655;BME280;21773;50.010;19.972;2023-03-15T12:33:47;98400.78;;;14.36;28.47
35655;BME280;21773;50.010;19.972;2023-03-15T12:36:55;98397.84;;;14.43;28.06
35655;BME280;21773;50.010;19.972;2023-03-15T12:40:05;98369.75;;;14.27;27.80
35655;BME280;21773;50.010;19.972;2023-03-15T12:43:38;98405.78;;;14.49;28.14
35655;BME280;21773;50.010;19.972;2023-03-15T12:46:55;98406.34;;;14.51;28.02
35655;BME280;21773;50.010;19.972;2023-03-15T12:50:35;98413.25;;;14.37;28.58
35655;BME280;21773;50.010;19.972;2023-03-15T12:53:49;98399.44;;;14.39;28.28
35655;BME280;21773;50.010;19.972;2023-03-15T12:56:56;98398.00;;;14.31;27.80
35655;BME280;21773;50.010;19.972;2023-03-15T13:00:05;98408.31;;;14.34;27.76
35655;BME280;21773;50.010;19.972;2023-03-15T13:03:15;98404.53;;;14.35;28.46
35655;BME280;21773;50.010;19.972;2023-03-15T13:06:30;98402.56;;;14.25;28.41
35655;BME280;21773;50.010;19.972;2023-03-15T13:10:08;98408.59;;;14.06;27.95
35655;BME280;21773;50.010;19.972;2023-03-15T13:13:28;98415.09;;;13.78;27.75
35655;BME280;21773;50.010;19.972;2023-03-15T13:16:39;98412.88;;;13.75;28.32
35655;BME280;21773;50.010;19.972;2023-03-15T13:19:53;98399.31;;;13.75;28.34
35655;BME280;21773;50.010;19.972;2023-03-15T13:23:04;98394.84;;;13.64;28.19
35655;BME280;21773;50.010;19.972;2023-03-15T13:26:20;98406.25;;;13.66;28.85
35655;BME280;21773;50.010;19.972;2023-03-15T13:29:28;98406.78;;;13.63;29.20
35655;BME280;21773;50.010;19.972;2023-03-15T13:32:33;98414.91;;;13.63;29.34
35655;BME280;21773;50.010;19.972;2023-03-15T13:35:46;98422.63;;;13.76;29.42
35655;BME280;21773;50.010;19.972;2023-03-15T13:38:51;98424.81;;;13.79;29.12
35655;BME280;21773;50.010;19.972;2023-03-15T13:41:56;98424.81;;;13.79;29.28
35655;BME280;21773;50.010;19.972;2023-03-15T13:45:11;98433.41;;;13.93;29.08
35655;BME280;21773;50.010;19.972;2023-03-15T13:48:16;98427.03;;;13.82;29.33
35655;BME280;21773;50.010;19.972;2023-03-15T13:51:24;98439.31;;;13.89;28.61
35655;BME280;21773;50.010;19.972;2023-03-15T13:54:29;98451.16;;;13.83;27.88
35655;BME280;21773;50.010;19.972;2023-03-15T13:57:33;98442.22;;;13.61;28.78
35655;BME280;21773;50.010;19.972;2023-03-15T14:00:38;98449.78;;;13.59;28.71
35655;BME280;21773;50.010;19.972;2023-03-15T14:03:48;98460.75;;;13.48;28.82
35655;BME280;21773;50.010;19.972;2023-03-15T14:07:22;98455.28;;;13.26;29.15
35655;BME280;21773;50.010;19.972;2023-03-15T14:10:29;98464.47;;;13.25;29.17
35655;BME280;21773;50.010;19.972;2023-03-15T14:13:34;98470.22;;;13.28;29.65
35655;BME280;21773;50.010;19.972;2023-03-15T14:16:48;98466.34;;;13.24;28.98
35655;BME280;21773;50.010;19.972;2023-03-15T14:20:13;98467.09;;;13.20;29.31
35655;BME280;21773;50.010;19.972;2023-03-15T14:23:22;98478.50;;;13.22;29.15
35655;BME280;21773;50.010;19.972;2023-03-15T14:26:27;98474.34;;;13.14;29.64
35655;BME280;21773;50.010;19.972;2023-03-15T14:29:33;98477.94;;;13.20;29.48
35655;BME280;21773;50.010;19.972;2023-03-15T14:32:50;98473.78;;;13.12;29.18
35655;BME280;21773;50.010;19.972;2023-03-15T14:35:57;98482.09;;;13.11;28.98
35655;BME280;21773;50.010;19.972;2023-03-15T14:39:02;98487.94;;;13.02;28.68
35655;BME280;21773;50.010;19.972;2023-03-15T14:42:09;98464.00;;;12.78;28.32
35655;BME280;21773;50.010;19.972;2023-03-15T14:45:13;98477.94;;;12.86;28.89
35655;BME280;21773;50.010;19.972;2023-03-15T14:48:21;98485.81;;;12.88;29.22
35655;BME280;21773;50.010;19.972;2023-03-15T14:51:28;98490.31;;;12.82;29.15
35655;BME280;21773;50.010;19.972;2023-03-15T14:54:34;98488.59;;;12.76;29.73
35655;BME280;21773;50.010;19.972;2023-03-15T14:57:38;98492.38;;;12.75;29.66
35655;BME280;21773;50.010;19.972;2023-03-15T15:00:43;98500.78;;;12.62;28.61
35655;BME280;21773;50.010;19.972;2023-03-15T15:03:50;98498.59;;;12.59;27.95
35655;BME280;21773;50.010;19.972;2023-03-15T15:06:55;98500.88;;;12.50;27.78
35655;BME280;21773;50.010;19.972;2023-03-15T15:10:00;98503.00;;;12.48;28.22
35655;BME280;21773;50.010;19.972;2023-03-15T15:13:04;98513.75;;;12.32;28.36
35655;BME280;21773;50.010;19.972;2023-03-15T15:16:08;98512.47;;;12.34;28.47
35655;BME280;21773;50.010;19.972;2023-03-15T15:19:14;98522.69;;;12.32;28.84
35655;BME280;21773;50.010;19.972;2023-03-15T15:22:18;98512.03;;;12.26;29.38
35655;BME280;21773;50.010;19.972;2023-03-15T15:25:23;98520.56;;;12.06;30.07
35655;BME280;21773;50.010;19.972;2023-03-15T15:28:30;98514.13;;;11.95;30.46
35655;BME280;21773;50.010;19.972;2023-03-15T15:31:38;98520.81;;;11.93;30.92
35655;BME280;21773;50.010;19.972;2023-03-15T15:34:42;98523.50;;;12.04;30.70
35655;BME280;21773;50.010;19.972;2023-03-15T15:37:47;98518.78;;;12.11;31.33
35655;BME280;21773;50.010;19.972;2023-03-15T15:40:52;98520.06;;;12.09;31.30
35655;BME280;21773;50.010;19.972;2023-03-15T15:43:56;98522.44;;;12.05;31.65
35655;BME280;21773;50.010;19.972;2023-03-15T15:46:59;98532.09;;;12.01;31.63
35655;BME280;21773;50.010;19.972;2023-03-15T15:50:03;98533.28;;;11.94;31.73
35655;BME280;21773;50.010;19.972;2023-03-15T15:53:06;98539.28;;;11.84;31.87
35655;BME280;21773;50.010;19.972;2023-03-15T15:56:11;98544.91;;;11.83;32.19
35655;BME280;21773;50.010;19.972;2023-03-15T15:59:16;98549.28;;;11.72;32.17
35655;BME280;21773;50.010;19.972;2023-03-15T16:02:20;98540.72;;;11.52;32.10
35655;BME280;21773;50.010;19.972;2023-03-15T16:05:25;98538.72;;;11.36;32.37
35655;BME280;21773;50.010;19.972;2023-03-15T16:08:33;98557.63;;;11.47;32.52
35655;BME280;21773;50.010;19.972;2023-03-15T16:11:40;98554.22;;;11.52;32.59
35655;BME280;21773;50.010;19.972;2023-03-15T16:14:45;98555.16;;;11.46;32.57
35655;BME280;21773;50.010;19.972;2023-03-15T16:17:49;98564.31;;;11.33;32.82
35655;BME280;21773;50.010;19.972;2023-03-15T16:20:52;98565.03;;;11.28;32.93
35655;BME280;21773;50.010;19.972;2023-03-15T16:23:59;98567.13;;;11.26;32.94
35655;BME280;21773;50.010;19.972;2023-03-15T16:27:07;98566.66;;;11.18;33.26
35655;BME280;21773;50.010;19.972;2023-03-15T16:30:18;98569.41;;;11.00;33.22